Time;durP1;ratioP1;P1;durP2;ratioP2;P2;SDS_P1;SDS_P2;PMS_P1;PMS_P2;Temp;Humidity;BMP_temperature;BMP_pressure;BME280_temperature;BME280_humidity;BME280_pressure;Samples;Min_cycle;Max_cycle;Signal;HPM_P1;HPM_P2
2023/01/01 00:01:30;;;;;;;282.90;168.50;;;;;;;4.13;100.00;94996.13;5093141;28;20196;-60
2023/01/01 00:03:58;;;;;;;266.60;159.70;;;;;;;4.05;100.00;84267.97;5093216;28;20670;-59
2023/01/01 00:06:26;;;;;;;256.77;145.37;;;;;;;4.18;100.00;73925.22;5092827;28;20198;-60
2023/01/01 00:10:26;;;;;;;237.77;143.97;;;;;;;4.27;100.00;67152.72;5093195;28;20555;-59
2023/01/01 00:11:40;;;;;;;241.97;138.70;;;;;;;4.25;100.00;62636.34;5092689;28;20282;-59
2023/01/01 00:14:09;;;;;;;259.53;147.53;;;;;;;4.42;100.00;53962.47;5092723;28;20181;-62
2023/01/01 00:16:36;;;;;;;195.20;108.37;;;;;;;4.59;100.00;44022.59;5092746;28;20241;-63
2023/01/01 00:19:03;;;;;;;204.63;115.43;;;;;;;4.60;100.00;36336.00;5092995;28;20188;-62
2023/01/01 00:21:30;;;;;;;228.10;129.67;;;;;;;4.77;100.00;32828.53;5092597;28;20180;-62
2023/01/01 00:23:56;;;;;;;225.53;130.57;;;;;;;4.81;100.00;36669.69;5092420;28;20181;-62
2023/01/01 00:26:23;;;;;;;194.77;113.83;;;;;;;4.56;100.00;43699.66;5092520;28;20192;-62
2023/01/01 00:28:50;;;;;;;197.73;114.80;;;;;;;4.63;100.00;46270.88;5092400;28;20232;-62
2023/01/01 00:31:21;;;;;;;197.83;111.67;;;;;;;4.71;100.00;48846.34;5092759;28;20184;-63
2023/01/01 00:33:52;;;;;;;145.70;81.80;;;;;;;4.62;100.00;52051.63;5091693;28;20190;-62
2023/01/01 00:36:20;;;;;;;133.47;75.07;;;;;;;4.73;100.00;51418.66;5092686;28;20551;-63
2023/01/01 00:38:47;;;;;;;142.93;80.27;;;;;;;4.73;100.00;52704.69;5092320;28;20195;-62
2023/01/01 00:41:15;;;;;;;121.43;68.03;;;;;;;4.71;100.00;48846.34;5092538;28;20214;-62
2023/01/01 00:43:42;;;;;;;95.67;54.33;;;;;;;4.74;100.00;47885.44;5092314;28;20188;-63
2023/01/01 00:46:09;;;;;;;107.80;59.33;;;;;;;4.87;100.00;42761.34;5092333;28;20691;-61
2023/01/01 00:48:38;;;;;;;127.13;70.50;;;;;;;4.72;100.00;44353.47;5092158;28;20189;-62
2023/01/01 00:51:06;;;;;;;119.80;63.80;;;;;;;4.85;100.00;47573.13;5092401;28;20659;-62
2023/01/01 00:53:34;;;;;;;107.77;61.97;;;;;;;4.88;100.00;49503.53;5090831;28;20195;-61
2023/01/01 00:56:00;;;;;;;105.47;61.10;;;;;;;4.85;100.00;50786.06;5092302;28;20181;-61
2023/01/01 00:58:27;;;;;;;109.73;62.17;;;;;;;4.88;100.00;51753.69;5092000;28;20188;-63
2023/01/01 01:00:54;;;;;;;117.13;62.93;;;;;;;4.91;100.00;51434.84;5092285;28;20646;-63
2023/01/01 01:03:30;;;;;;;111.73;63.73;;;;;;;4.85;100.00;50143.66;5091897;28;20176;-62
2023/01/01 01:06:09;;;;;;;100.70;56.60;;;;;;;4.75;100.00;52063.00;5092143;28;20208;-62
2023/01/01 01:08:37;;;;;;;104.87;55.90;;;;;;;4.73;100.00;50775.84;5092003;28;20286;-62
2023/01/01 01:11:05;;;;;;;85.57;48.27;;;;;;;4.65;100.00;53018.88;5091751;28;20191;-63
2023/01/01 01:13:32;;;;;;;82.00;46.43;;;;;;;4.58;100.00;54620.81;5090688;28;20203;-62
2023/01/01 01:15:59;;;;;;;83.40;43.63;;;;;;;4.33;100.00;57813.94;5091760;28;20187;-63
2023/01/01 01:18:26;;;;;;;61.77;39.70;;;;;;;4.34;100.00;47530.94;5091621;28;20184;-62
2023/01/01 01:20:54;;;;;;;70.03;38.40;;;;;;;4.14;100.00;39185.03;5091622;28;20203;-62
2023/01/01 01:23:22;;;;;;;59.47;35.57;;;;;;;4.25;100.00;35673.84;5091673;28;20601;-62
2023/01/01 01:25:49;;;;;;;52.17;31.30;;;;;;;4.37;100.00;25783.66;5091905;28;20218;-62
2023/01/01 01:28:16;;;;;;;58.37;33.50;;;;;;;4.68;100.00;17197.00;5091373;28;20231;-62
2023/01/01 01:30:42;;;;;;;62.77;36.80;;;;;;;4.68;100.00;14970.72;5091957;28;20638;-63
2023/01/01 01:33:10;;;;;;;62.23;35.70;;;;;;;4.80;100.00;15292.28;5091844;28;20191;-63
2023/01/01 01:35:37;;;;;;;61.30;36.80;;;;;;;4.57;100.00;20375.97;5091404;28;20195;-63
2023/01/01 01:38:03;;;;;;;58.37;35.93;;;;;;;4.60;100.00;23881.75;5091824;28;20570;-62
2023/01/01 01:40:33;;;;;;;60.93;34.63;;;;;;;4.60;100.00;25794.81;5091901;28;20191;-63
2023/01/01 01:43:00;;;;;;;55.27;34.87;;;;;;;4.64;100.00;31223.13;5092202;28;20184;-62
2023/01/01 01:45:27;;;;;;;56.13;31.63;;;;;;;4.54;100.00;37292.31;5096410;28;20682;-62
2023/01/01 01:47:57;;;;;;;54.90;32.63;;;;;;;4.41;100.00;41125.06;5096220;28;20188;-63
2023/01/01 01:50:28;;;;;;;50.53;31.03;;;;;;;4.27;100.00;43356.84;5096107;28;20202;-64
2023/01/01 01:53:04;;;;;;;51.60;31.13;;;;;;;4.20;100.00;41429.97;5096185;28;20184;-62
2023/01/01 01:55:37;;;;;;;53.57;31.57;;;;;;;4.34;100.00;39839.16;5096374;28;20558;-62
2023/01/01 01:58:05;;;;;;;49.50;31.00;;;;;;;4.38;100.00;42404.28;5096273;28;20245;-62
2023/01/01 02:00:33;;;;;;;58.30;31.37;;;;;;;4.41;100.00;39523.63;5095554;28;20188;-62
2023/01/01 02:03:06;;;;;;;50.97;30.47;;;;;;;4.49;100.00;36968.69;5095783;28;20547;-62
2023/01/01 02:05:34;;;;;;;48.03;29.37;;;;;;;4.40;100.00;39522.91;5095687;28;20280;-62
2023/01/01 02:08:03;;;;;;;46.10;28.23;;;;;;;4.42;100.00;41125.81;5095607;28;20184;-62
2023/01/01 02:10:30;;;;;;;41.30;25.87;;;;;;;4.29;100.00;43358.34;5095418;28;20191;-62
2023/01/01 02:12:59;;;;;;;43.97;27.00;;;;;;;4.33;100.00;45284.81;5095539;28;20184;-62
2023/01/01 02:15:31;;;;;;;42.90;27.03;;;;;;;4.27;100.00;46562.72;5095402;28;20180;-62
2023/01/01 02:18:03;;;;;;;41.33;26.87;;;;;;;4.27;100.00;49451.09;5095391;28;20481;-63
2023/01/01 02:20:40;;;;;;;41.23;26.07;;;;;;;4.15;100.00;54258.44;5095009;28;20262;-63
2023/01/01 02:23:29;;;;;;;45.20;25.37;;;;;;;3.69;100.00;46836.53;5095227;28;20210;-63
2023/01/01 02:26:18;;;;;;;40.03;24.47;;;;;;;3.55;100.00;43942.69;5094880;28;20200;-62
2023/01/01 02:28:55;;;;;;;37.17;23.60;;;;;;;3.92;100.00;42690.34;5093298;28;20285;-62
2023/01/01 02:31:27;;;;;;;41.87;25.27;;;;;;;3.91;100.00;40448.66;5095081;28;20295;-62
2023/01/01 02:33:59;;;;;;;41.60;24.20;;;;;;;3.92;100.00;38850.22;5094739;28;20301;-62
2023/01/01 02:36:28;;;;;;;40.80;24.53;;;;;;;3.76;100.00;29898.25;5095387;28;20665;-64
2023/01/01 02:38:58;;;;;;;43.07;24.73;;;;;;;3.88;100.00;23850.09;5094732;28;20188;-63
2023/01/01 02:41:28;;;;;;;36.93;24.43;;;;;;;3.90;100.00;18760.53;5094549;28;20196;-62
2023/01/01 02:43:57;;;;;;;33.90;23.83;;;;;;;3.91;100.00;15583.53;5094520;28;20191;-62
2023/01/01 02:46:24;;;;;;;43.77;25.83;;;;;;;3.87;100.00;11456.38;5094383;28;20208;-61
2023/01/01 02:48:52;;;;;;;40.20;26.00;;;;;;;3.90;100.00;9554.44;5094797;28;20195;-62
2023/01/01 02:51:31;;;;;;;36.60;26.07;;;;;;;4.00;100.00;8605.34;5094752;28;20181;-64
2023/01/01 02:54:05;;;;;;;38.33;22.80;;;;;;;4.04;100.00;9240.25;5094396;28;20180;-62
2023/01/01 02:56:38;;;;;;;36.53;22.57;;;;;;;3.86;100.00;12090.41;5093515;28;20469;-63
2023/01/01 03:02:11;;;;;;;29.60;20.30;;;;;;;3.66;100.00;18752.09;5094324;28;20195;-63
2023/01/01 03:04:49;;;;;;;31.93;20.93;;;;;;;3.58;100.00;19384.75;5094114;28;20233;-63
2023/01/01 03:07:27;;;;;;;28.17;20.10;;;;;;;3.45;100.00;21604.78;5094368;28;20650;-63
2023/01/01 03:09:59;;;;;;;29.03;20.00;;;;;;;3.56;100.00;25109.03;5094106;28;20180;-64
2023/01/01 03:12:39;;;;;;;29.67;19.83;;;;;;;3.35;100.00;27964.50;5094295;28;20180;-62
2023/01/01 03:15:16;;;;;;;36.00;19.90;;;;;;;3.17;100.00;30504.03;5094242;28;20558;-63
2023/01/01 03:17:52;;;;;;;30.97;19.03;;;;;;;3.35;100.00;28920.41;5093920;28;20198;-63
2023/01/01 03:20:23;;;;;;;33.00;21.13;;;;;;;3.31;100.00;24779.50;5094202;28;20267;-63
2023/01/01 03:22:53;;;;;;;30.43;20.83;;;;;;;3.48;100.00;23196.34;5094100;28;20528;-63
2023/01/01 03:25:25;;;;;;;33.67;21.57;;;;;;;3.61;100.00;21293.25;5094051;28;20251;-63
2023/01/01 03:27:57;;;;;;;31.00;19.57;;;;;;;3.56;100.00;25109.25;5093623;28;20231;-63
2023/01/01 03:30:27;;;;;;;25.57;20.10;;;;;;;3.34;100.00;27645.53;5093955;28;20207;-62
2023/01/01 03:33:02;;;;;;;33.77;21.23;;;;;;;3.44;100.00;29562.44;5093931;28;20187;-64
2023/01/01 03:35:37;;;;;;;29.80;20.70;;;;;;;3.42;100.00;32111.84;5093791;28;20180;-62
2023/01/01 03:38:08;;;;;;;39.67;23.07;;;;;;;3.48;100.00;32434.00;5093925;28;20195;-62
2023/01/01 03:40:38;;;;;;;44.47;24.57;;;;;;;3.49;100.00;32115.59;5093949;28;20211;-62
2023/01/01 03:43:11;;;;;;;39.57;23.57;;;;;;;3.60;100.00;32122.25;5093362;28;20212;-64
2023/01/01 03:45:43;;;;;;;33.90;23.50;;;;;;;3.52;100.00;32117.34;5093606;28;20204;-64
2023/01/01 03:48:11;;;;;;;40.00;25.80;;;;;;;3.44;100.00;30199.63;5092372;28;20184;-62
2023/01/01 03:50:49;;;;;;;35.83;24.77;;;;;;;3.49;100.00;26697.63;5093309;28;20184;-63
2023/01/01 03:53:26;;;;;;;38.00;23.63;;;;;;;2.97;100.00;24446.19;5093462;28;20577;-62
2023/01/01 03:56:03;;;;;;;34.87;24.03;;;;;;;3.35;100.00;26054.34;5093228;28;20187;-62
2023/01/01 03:58:35;;;;;;;44.67;23.97;;;;;;;3.34;100.00;27327.09;5093145;28;20195;-63
2023/01/01 04:01:11;;;;;;;36.73;24.00;;;;;;;3.36;100.00;27328.34;5093475;28;20560;-63
2023/01/01 04:03:40;;;;;;;43.37;25.77;;;;;;;3.14;100.00;29227.84;5092970;28;20184;-63
2023/01/01 04:06:09;;;;;;;37.83;24.73;;;;;;;3.40;100.00;27967.31;5093136;28;20211;-63
2023/01/01 04:08:36;;;;;;;42.00;24.93;;;;;;;3.37;100.00;28284.03;5093016;28;20241;-64
2023/01/01 04:13:51;;;;;;;36.90;25.17;;;;;;;3.36;100.00;28602.34;5092593;28;20207;-63
2023/01/01 04:16:19;;;;;;;35.17;24.50;;;;;;;3.49;100.00;27334.59;5092746;28;20184;-63
2023/01/01 04:18:46;;;;;;;39.00;25.07;;;;;;;3.09;100.00;30818.25;5092756;28;20196;-63
2023/01/01 04:21:13;;;;;;;39.20;25.67;;;;;;;3.23;100.00;27322.09;5092965;28;20666;-63
2023/01/01 04:23:39;;;;;;;39.50;24.17;;;;;;;3.03;100.00;29859.22;5092625;28;20191;-62
2023/01/01 04:26:11;;;;;;;39.47;24.63;;;;;;;3.26;100.00;28915.66;5092390;28;20207;-63
2023/01/01 04:28:38;;;;;;;41.70;24.47;;;;;;;3.34;100.00;29875.47;5092487;28;20599;-64
2023/01/01 04:31:05;;;;;;;28.93;21.07;;;;;;;3.39;100.00;29559.50;5092459;28;20202;-62
2023/01/01 04:33:33;;;;;;;37.33;24.53;;;;;;;3.28;100.00;27961.19;5092454;28;20203;-63
2023/01/01 04:36:04;;;;;;;38.40;24.00;;;;;;;3.36;100.00;28283.53;5092901;28;20712;-63
2023/01/01 04:38:30;;;;;;;42.53;25.67;;;;;;;3.25;100.00;29552.25;5092468;28;20278;-63
2023/01/01 04:40:58;;;;;;;36.37;22.40;;;;;;;3.25;100.00;28915.13;5092360;28;20195;-62
2023/01/01 04:43:25;;;;;;;43.00;26.10;;;;;;;3.32;100.00;24461.56;5092165;28;20203;-64
2023/01/01 04:45:56;;;;;;;38.93;23.37;;;;;;;3.59;100.00;21610.47;5092563;28;20204;-62
2023/01/01 04:48:24;;;;;;;34.80;23.83;;;;;;;3.69;100.00;19706.69;5092158;28;20191;-63
2023/01/01 04:50:56;;;;;;;33.20;21.90;;;;;;;3.61;100.00;20339.63;5092509;28;20199;-63
2023/01/01 04:53:23;;;;;;;38.57;21.73;;;;;;;3.65;100.00;23203.47;5092043;28;20184;-63
2023/01/01 04:55:50;;;;;;;37.40;22.20;;;;;;;3.56;100.00;27656.66;5092106;28;20191;-62
2023/01/01 04:58:17;;;;;;;32.60;22.07;;;;;;;3.37;100.00;30514.81;5092342;28;20188;-64
2023/01/01 05:00:48;;;;;;;33.13;20.53;;;;;;;3.40;100.00;28604.16;5092268;28;20569;-63
2023/01/01 05:03:14;;;;;;;27.93;21.13;;;;;;;3.35;100.00;29238.72;5091960;28;20254;-62
2023/01/01 05:05:41;;;;;;;28.93;21.43;;;;;;;3.14;100.00;27317.34;5091965;28;20219;-63
2023/01/01 05:08:10;;;;;;;32.40;21.70;;;;;;;3.02;100.00;26038.78;5090872;28;20264;-64
2023/01/01 05:10:37;;;;;;;45.00;26.20;;;;;;;3.14;100.00;24135.84;5092254;28;20191;-62
2023/01/01 05:13:07;;;;;;;38.27;22.13;;;;;;;2.99;100.00;22857.59;5092401;28;20188;-62
2023/01/01 05:15:36;;;;;;;36.70;22.87;;;;;;;3.05;100.00;21588.78;5092051;28;20699;-62
2023/01/01 05:18:03;;;;;;;47.60;24.63;;;;;;;3.08;100.00;23179.09;5091811;28;20273;-63
2023/01/01 05:20:30;;;;;;;39.83;26.60;;;;;;;3.29;100.00;21598.50;5091393;28;20184;-62
2023/01/01 05:22:56;;;;;;;42.40;21.77;;;;;;;3.46;100.00;19380.53;5091884;28;20245;-62
2023/01/01 05:25:25;;;;;;;32.70;21.73;;;;;;;3.39;100.00;25419.41;5091516;28;20195;-62
2023/01/01 05:27:52;;;;;;;32.50;21.77;;;;;;;3.28;100.00;32103.72;5091776;28;20604;-63
2023/01/01 05:30:18;;;;;;;37.47;22.73;;;;;;;3.26;100.00;34016.19;5091926;28;20250;-63
2023/01/01 05:32:45;;;;;;;33.33;22.13;;;;;;;3.29;100.00;35613.28;5091615;28;20183;-63
2023/01/01 05:35:12;;;;;;;28.43;21.17;;;;;;;3.19;100.00;34650.25;5091827;28;20555;-62
2023/01/01 05:37:39;;;;;;;37.70;23.33;;;;;;;3.11;100.00;30182.13;5092051;28;20531;-63
2023/01/01 05:40:07;;;;;;;38.30;22.73;;;;;;;3.52;100.00;26699.09;5091667;28;20634;-62
2023/01/01 05:42:36;;;;;;;37.97;23.87;;;;;;;3.58;100.00;28294.88;5091492;28;20192;-63
2023/01/01 05:45:03;;;;;;;32.93;21.87;;;;;;;3.51;100.00;30841.38;5090213;28;20184;-63
2023/01/01 05:47:30;;;;;;;37.37;23.53;;;;;;;3.56;100.00;32757.72;5091275;28;20204;-63
2023/01/01 05:49:57;;;;;;;42.80;22.00;;;;;;;3.56;100.00;33395.91;5091626;28;20187;-64
2023/01/01 05:52:24;;;;;;;32.17;21.27;;;;;;;3.50;100.00;35945.97;5091336;28;20187;-63
2023/01/01 05:54:51;;;;;;;36.20;22.50;;;;;;;3.49;100.00;36903.44;5091244;28;20187;-62
2023/01/01 05:57:18;;;;;;;35.53;21.40;;;;;;;3.52;100.00;37224.88;5091413;28;20198;-63
2023/01/01 05:59:46;;;;;;;36.77;21.13;;;;;;;3.64;100.00;36593.84;5091126;28;20203;-63
2023/01/01 06:02:13;;;;;;;34.97;20.20;;;;;;;3.66;100.00;36275.69;5091289;28;20191;-63
2023/01/01 06:04:39;;;;;;;29.07;20.07;;;;;;;3.61;100.00;34037.25;5091521;28;20543;-62
2023/01/01 06:07:06;;;;;;;33.33;19.77;;;;;;;3.73;100.00;31172.09;5091182;28;20207;-63
2023/01/01 06:09:33;;;;;;;35.43;21.10;;;;;;;3.88;100.00;30542.72;5091190;28;20184;-62
2023/01/01 06:12:00;;;;;;;31.03;19.47;;;;;;;3.92;100.00;29906.94;5091413;28;20211;-62
2023/01/01 06:14:27;;;;;;;35.87;20.27;;;;;;;4.21;100.00;31837.41;5091426;28;20635;-62
2023/01/01 06:16:55;;;;;;;36.27;20.87;;;;;;;4.43;100.00;36005.47;5091446;28;20181;-63
2023/01/01 06:19:22;;;;;;;43.70;23.33;;;;;;;4.68;100.00;43708.91;5091354;28;20196;-62
2023/01/01 06:21:48;;;;;;;44.87;24.00;;;;;;;5.31;100.00;50504.81;5091143;28;20191;-62
2023/01/01 06:24:15;;;;;;;54.17;25.83;;;;;;;5.66;100.00;69253.81;5091632;28;20191;-63
2023/01/01 06:26:42;;;;;;;68.83;30.27;;;;;;;6.15;100.00;71903.94;5091302;28;20543;-63
2023/01/01 06:29:09;;;;;;;113.27;42.43;;;;;;;6.77;100.00;84332.03;5090805;28;20235;-64
2023/01/01 06:31:36;;;;;;;61.43;30.43;;;;;;;7.16;100.00;144155.66;5094846;28;20196;-63
2023/01/01 06:34:04;;;;;;;43.97;24.97;;;;;;;7.30;100.00;147881.47;5094862;28;20200;-64
2023/01/01 06:36:31;;;;;;;56.33;27.20;;;;;;;7.84;100.00;148015.16;5095417;28;20661;-64
2023/01/01 06:38:59;;;;;;;43.63;24.37;;;;;;;8.35;100.00;148142.63;5094697;28;20195;-63
2023/01/01 06:41:29;;;;;;;46.20;24.93;;;;;;;8.60;100.00;148206.97;5095051;28;20188;-65
2023/01/01 06:43:56;;;;;;;37.93;23.17;;;;;;;9.21;100.00;148358.44;5094821;28;20195;-63
2023/01/01 06:46:25;;;;;;;31.70;21.60;;;;;;;9.67;100.00;148472.13;5094592;28;20204;-63
2023/01/01 06:48:54;;;;;;;35.77;22.20;;;;;;;9.92;100.00;148535.28;5094854;28;20559;-63
2023/01/01 06:51:25;;;;;;;31.13;21.43;;;;;;;10.02;100.00;148560.50;5094796;28;20188;-63
2023/01/01 06:53:52;;;;;;;30.07;22.17;;;;;;;10.12;100.00;148585.81;5094525;28;20191;-64
2023/01/01 06:56:20;;;;;;;29.93;20.87;;;;;;;10.73;100.00;148737.53;5094575;28;20622;-63
2023/01/01 06:58:47;;;;;;;30.67;20.50;;;;;;;10.81;100.00;148759.03;5094806;28;20645;-63
2023/01/01 07:01:16;;;;;;;28.70;19.83;;;;;;;10.93;100.00;148788.09;5094500;28;20188;-63
2023/01/01 07:03:44;;;;;;;32.30;20.90;;;;;;;11.62;100.00;148960.09;5094416;28;20189;-63
2023/01/01 07:06:11;;;;;;;25.63;19.67;;;;;;;12.12;100.00;149086.69;5094704;28;20208;-63
2023/01/01 07:08:39;;;;;;;31.70;22.83;;;;;;;12.75;100.00;149244.91;5094454;28;20195;-64
2023/01/01 07:11:06;;;;;;;35.77;24.90;;;;;;;13.57;100.00;149448.91;5094025;28;20192;-63
2023/01/01 07:13:33;;;;;;;34.43;24.93;;;;;;;14.02;100.00;149562.94;5094066;28;20188;-63
2023/01/01 07:16:00;;;;;;;36.90;26.40;;;;;;;13.85;100.00;149518.56;5094464;28;20196;-63
2023/01/01 07:18:27;;;;;;;34.97;24.50;;;;;;;13.99;100.00;149554.06;5093939;28;20195;-63
2023/01/01 07:20:56;;;;;;;42.77;27.83;;;;;;;14.13;100.00;149590.81;5094231;28;20631;-64
2023/01/01 07:23:24;;;;;;;48.97;28.73;;;;;;;15.07;100.00;149825.44;5094156;28;20211;-63
2023/01/01 07:25:53;;;;;;;38.93;27.57;;;;;;;15.94;100.00;150045.03;5094320;28;20559;-63
2023/01/01 07:28:21;;;;;;;47.60;29.60;;;;;;;16.64;100.00;150220.28;5093614;28;20224;-63
2023/01/01 07:30:48;;;;;;;43.00;28.37;;;;;;;16.50;100.00;150184.72;5093956;28;20187;-63
2023/01/01 07:33:17;;;;;;;44.43;28.43;;;;;;;17.30;100.00;150385.44;5093974;28;20575;-63
2023/01/01 07:35:45;;;;;;;42.87;28.87;;;;;;;16.09;100.00;150080.56;5093788;28;20192;-63
2023/01/01 07:38:12;;;;;;;50.07;29.33;;;;;;;16.32;100.00;150138.97;5094192;28;20643;-63
2023/01/01 07:40:39;;;;;;;42.47;30.37;;;;;;;16.78;100.00;150255.84;5093969;28;20267;-63
2023/01/01 07:43:07;;;;;;;43.53;30.67;;;;;;;16.20;100.00;150108.50;5092920;28;20615;-63
2023/01/01 07:45:35;;;;;;;42.03;30.53;;;;;;;16.62;100.00;150215.22;5093813;28;20212;-63
2023/01/01 07:48:02;;;;;;;46.70;29.90;;;;;;;17.82;98.55;150516.41;5093286;28;20207;-63
2023/01/01 07:50:31;;;;;;;46.17;29.33;;;;;;;18.34;93.00;150647.31;5093579;28;20188;-63
2023/01/01 07:52:59;;;;;;;37.57;27.60;;;;;;;19.18;86.22;150858.50;5093846;28;20270;-63
2023/01/01 07:55:26;;;;;;;38.47;27.17;;;;;;;19.35;85.37;150901.75;5093338;28;20203;-63
2023/01/01 07:57:56;;;;;;;39.47;26.83;;;;;;;18.99;88.67;150810.16;5093390;28;20177;-63
2023/01/01 08:00:24;;;;;;;34.50;25.93;;;;;;;19.40;87.01;150914.50;5093171;28;20199;-64
2023/01/01 08:02:51;;;;;;;27.43;24.40;;;;;;;19.37;87.81;150905.59;5093478;28;20550;-64
2023/01/01 08:05:18;;;;;;;34.03;24.90;;;;;;;19.05;90.32;150825.44;5093073;28;20180;-63
2023/01/01 08:07:46;;;;;;;35.70;24.87;;;;;;;19.75;86.58;151002.38;5092945;28;20215;-63
2023/01/01 08:10:14;;;;;;;35.07;25.07;;;;;;;19.96;85.03;151055.81;5092940;28;20238;-63
2023/01/01 08:12:41;;;;;;;31.67;26.10;;;;;;;19.57;86.11;150957.81;5093216;28;20188;-63
2023/01/01 08:15:10;;;;;;;33.70;25.97;;;;;;;20.03;85.85;151073.63;5092924;28;20190;-64
2023/01/01 08:17:39;;;;;;;39.63;27.53;;;;;;;21.42;78.02;151422.75;5093093;28;20196;-63
2023/01/01 08:20:07;;;;;;;34.90;28.00;;;;;;;22.26;71.86;151635.69;5093095;28;20562;-63
2023/01/01 08:22:34;;;;;;;33.72;26.75;;;;;;;22.07;71.81;151587.22;5093294;28;20184;-63
2023/01/01 08:25:01;;;;;;;30.27;26.98;;;;;;;22.17;69.99;151612.72;5093502;28;20188;-64
2023/01/01 08:27:28;;;;;;;31.42;26.42;;;;;;;22.55;66.22;151707.09;5093538;28;20579;-64
2023/01/01 08:29:55;;;;;;;31.02;26.92;;;;;;;22.77;66.07;151764.53;5093186;28;20195;-63
2023/01/01 08:32:22;;;;;;;30.55;26.42;;;;;;;22.94;63.98;151806.63;5093455;28;20180;-64
2023/01/01 08:34:50;;;;;;;36.20;27.48;;;;;;;23.80;59.86;152022.34;5093207;28;20646;-63
2023/01/01 08:37:19;;;;;;;29.92;26.45;;;;;;;24.22;57.47;152129.63;5093696;28;20642;-63
2023/01/01 08:39:49;;;;;;;29.95;26.70;;;;;;;24.66;56.49;152240.69;5093271;28;20187;-62
2023/01/01 08:42:16;;;;;;;32.05;25.42;;;;;;;24.57;54.67;152218.97;5092546;28;20184;-63
2023/01/01 08:44:43;;;;;;;29.60;24.98;;;;;;;24.50;56.67;152201.13;5092674;28;20597;-63
2023/01/01 08:47:17;;;;;;;29.92;25.50;;;;;;;25.06;56.12;152341.66;5092717;28;20204;-64
2023/01/01 08:49:44;;;;;;;30.42;23.52;;;;;;;26.25;51.88;152642.09;5092337;28;20183;-63
2023/01/01 08:52:12;;;;;;;25.85;23.15;;;;;;;26.85;49.38;152794.31;5092505;28;20632;-63
2023/01/01 08:54:39;;;;;;;26.77;24.23;;;;;;;28.13;46.37;153119.34;5091371;28;20195;-63
2023/01/01 08:57:06;;;;;;;25.38;23.05;;;;;;;28.86;44.11;153302.50;5092165;28;20180;-63
2023/01/01 08:59:32;;;;;;;25.85;23.17;;;;;;;29.52;42.54;153469.06;5092416;28;20630;-64
2023/01/01 09:01:59;;;;;;;25.35;22.90;;;;;;;30.33;40.25;153676.72;5092210;28;20192;-64
2023/01/01 09:04:26;;;;;;;25.08;22.85;;;;;;;30.44;40.06;153702.31;5092283;28;20217;-63
2023/01/01 09:06:53;;;;;;;24.52;22.25;;;;;;;30.19;39.56;153640.81;5092238;28;20204;-63
2023/01/01 09:09:22;;;;;;;24.85;22.25;;;;;;;29.36;40.64;153429.38;5092156;28;20604;-64
2023/01/01 09:11:51;;;;;;;23.65;21.38;;;;;;;28.53;42.63;153219.22;5092126;28;20203;-64
2023/01/01 09:14:19;;;;;;;22.60;19.65;;;;;;;28.04;43.19;153096.31;5091857;28;20184;-64
2023/01/01 09:16:45;;;;;;;19.02;17.50;;;;;;;28.25;43.16;153148.84;5091813;28;20191;-63
2023/01/01 09:19:13;;;;;;;18.23;16.65;;;;;;;27.02;44.75;152837.78;5092068;28;20187;-63
2023/01/01 09:21:39;;;;;;;20.15;18.13;;;;;;;27.16;45.77;152872.31;5091824;28;20183;-63
2023/01/01 09:24:07;;;;;;;21.58;19.58;;;;;;;27.40;45.62;152933.75;5092013;28;20188;-62
2023/01/01 09:26:35;;;;;;;14.88;13.85;;;;;;;27.99;42.91;153082.22;5091756;28;20195;-63
2023/01/01 09:29:02;;;;;;;14.43;13.57;;;;;;;28.13;42.18;153119.34;5091656;28;20238;-63
2023/01/01 09:31:29;;;;;;;11.40;10.73;;;;;;;27.88;41.29;153055.31;5091445;28;20191;-64
2023/01/01 09:33:56;;;;;;;10.38;9.40;;;;;;;28.43;39.90;153193.66;5092090;28;20195;-64
2023/01/01 09:36:28;;;;;;;10.07;9.38;;;;;;;29.76;37.14;153530.56;5091708;28;20303;-63
2023/01/01 09:38:57;;;;;;;9.63;8.98;;;;;;;30.05;36.26;153603.63;5091497;28;20190;-63
2023/01/01 09:41:37;;;;;;;9.95;9.18;;;;;;;30.18;36.54;153638.25;5091442;28;20180;-63
2023/01/01 09:44:17;;;;;;;9.70;9.25;;;;;;;30.02;35.52;153597.25;5090644;28;20191;-63
2023/01/01 09:46:44;;;;;;;10.60;9.68;;;;;;;29.48;36.66;153461.41;5091449;28;20206;-63
2023/01/01 09:49:15;;;;;;;11.75;11.05;;;;;;;28.11;38.53;153112.97;5091424;28;20180;-63
2023/01/01 09:51:43;;;;;;;10.98;10.38;;;;;;;27.36;39.50;152923.50;5091814;28;20188;-62
2023/01/01 09:54:24;;;;;;;11.02;10.38;;;;;;;26.64;40.68;152740.56;5091273;28;20188;-63
2023/01/01 09:56:55;;;;;;;11.27;10.50;;;;;;;27.11;40.72;152859.53;5091297;28;20184;-63
2023/01/01 09:59:24;;;;;;;11.40;10.30;;;;;;;27.69;40.22;153006.72;5091341;28;20184;-63
2023/01/01 10:01:57;;;;;;;10.25;9.75;;;;;;;27.69;40.09;153006.72;5091309;28;20188;-63
2023/01/01 10:04:41;;;;;;;10.00;9.50;;;;;;;27.39;40.64;152931.16;5091729;28;20190;-63
2023/01/01 10:07:14;;;;;;;10.75;10.20;;;;;;;28.27;39.26;153153.94;5095553;28;20204;-63
2023/01/01 10:09:50;;;;;;;10.18;9.68;;;;;;;28.89;38.44;153310.22;5095304;28;20206;-63
2023/01/01 10:12:25;;;;;;;9.82;9.32;;;;;;;29.57;37.94;153481.88;5095463;28;20626;-63
2023/01/01 10:15:01;;;;;;;9.43;9.02;;;;;;;29.32;37.01;153420.38;5095298;28;20187;-63
2023/01/01 10:17:36;;;;;;;9.35;8.95;;;;;;;29.90;36.17;153567.78;5095358;28;20183;-63
2023/01/01 10:20:07;;;;;;;8.98;8.45;;;;;;;30.23;35.78;153651.06;5095034;28;20199;-63
2023/01/01 10:22:37;;;;;;;10.40;9.70;;;;;;;29.67;36.78;153508.75;5095384;28;20188;-63
2023/01/01 10:25:15;;;;;;;9.55;9.25;;;;;;;29.90;36.57;153566.50;5094960;28;20191;-63
2023/01/01 10:27:47;;;;;;;10.93;10.18;;;;;;;29.84;36.47;153551.03;5094893;28;20270;-63
2023/01/01 10:30:18;;;;;;;10.60;10.02;;;;;;;29.89;36.51;153563.91;5095452;28;20562;-63
2023/01/01 10:32:48;;;;;;;9.38;9.00;;;;;;;29.42;37.41;153446.00;5095180;28;20180;-63
2023/01/01 10:35:17;;;;;;;10.60;10.10;;;;;;;29.26;38.11;153404.97;5094757;28;20191;-63
2023/01/01 10:37:44;;;;;;;10.10;9.70;;;;;;;29.59;37.27;153487.00;5095327;28;20184;-64
2023/01/01 10:40:16;;;;;;;9.90;9.35;;;;;;;30.22;36.41;153648.47;5095269;28;20187;-64
2023/01/01 10:42:48;;;;;;;9.88;9.18;;;;;;;30.31;36.42;153670.28;5094771;28;20195;-63
2023/01/01 10:45:18;;;;;;;9.27;8.90;;;;;;;29.66;37.49;153506.25;5094794;28;20188;-64
2023/01/01 10:48:17;;;;;;;9.85;9.30;;;;;;;29.80;37.02;153540.78;5093597;28;20214;-64
2023/01/01 10:50:48;;;;;;;8.02;7.72;;;;;;;29.85;36.16;153553.63;5094843;28;20626;-63
2023/01/01 10:53:24;;;;;;;7.97;7.68;;;;;;;30.26;35.99;153657.44;5094498;28;20180;-63
2023/01/01 10:56:05;;;;;;;9.20;8.80;;;;;;;30.47;36.20;153710.09;5094856;28;20608;-63
2023/01/01 10:58:38;;;;;;;7.50;7.20;;;;;;;30.67;35.31;153761.34;5094426;28;20184;-63
2023/01/01 11:01:08;;;;;;;6.50;6.18;;;;;;;31.47;34.13;153965.28;5093387;28;20195;-63
2023/01/01 11:03:36;;;;;;;5.93;5.72;;;;;;;31.70;33.54;154023.03;5094622;28;20180;-63
2023/01/01 11:06:06;;;;;;;5.35;5.15;;;;;;;31.84;33.12;154058.94;5094248;28;20210;-63
2023/01/01 11:08:37;;;;;;;5.68;5.45;;;;;;;31.95;32.58;154087.22;5094402;28;20574;-62
2023/01/01 11:11:04;;;;;;;5.13;4.82;;;;;;;31.82;33.39;154053.84;5094425;28;20184;-64
2023/01/01 11:13:33;;;;;;;5.20;5.00;;;;;;;31.58;33.10;153992.25;5094114;28;20188;-63
2023/01/01 11:16:01;;;;;;;5.93;5.50;;;;;;;31.76;32.76;154038.44;5093569;28;20177;-63
2023/01/01 11:18:34;;;;;;;4.88;4.68;;;;;;;32.10;32.46;154124.44;5093955;28;20634;-64
2023/01/01 11:21:04;;;;;;;4.80;4.60;;;;;;;31.46;32.59;153961.41;5093892;28;20186;-63
2023/01/01 11:23:33;;;;;;;4.85;4.65;;;;;;;31.09;33.27;153867.81;5094190;28;20192;-63
2023/01/01 11:26:03;;;;;;;4.50;4.20;;;;;;;30.88;33.55;153815.19;5093765;28;20188;-63
2023/01/01 11:28:33;;;;;;;4.15;4.00;;;;;;;31.22;32.88;153902.44;5093708;28;20598;-62
2023/01/01 11:31:12;;;;;;;4.50;4.30;;;;;;;30.81;33.37;153797.22;5092607;28;20188;-62